sensor_id;sensor_type;location;lat;lon;timestamp;temperature;humidity
12684;DHT22;6406;59.312;18.058;2022-07-12T00:00:26;15.10;12.40
12684;DHT22;6406;59.312;18.058;2022-07-12T00:02:52;15.10;11.80
12684;DHT22;6406;59.312;18.058;2022-07-12T00:05:19;15.10;12.70
12684;DHT22;6406;59.312;18.058;2022-07-12T00:07:47;15.10;12.90
12684;DHT22;6406;59.312;18.058;2022-07-12T00:10:13;15.00;12.40
12684;DHT22;6406;59.312;18.058;2022-07-12T00:12:40;14.90;13.00
12684;DHT22;6406;59.312;18.058;2022-07-12T00:15:09;14.90;19.60
12684;DHT22;6406;59.312;18.058;2022-07-12T00:17:37;15.00;19.20
12684;DHT22;6406;59.312;18.058;2022-07-12T00:20:06;15.00;19.40
12684;DHT22;6406;59.312;18.058;2022-07-12T00:22:33;14.90;18.50
12684;DHT22;6406;59.312;18.058;2022-07-12T00:25:00;14.90;18.00
12684;DHT22;6406;59.312;18.058;2022-07-12T00:27:27;14.90;15.80
12684;DHT22;6406;59.312;18.058;2022-07-12T00:29:55;14.40;16.40
12684;DHT22;6406;59.312;18.058;2022-07-12T00:32:22;14.80;12.70
12684;DHT22;6406;59.312;18.058;2022-07-12T00:34:50;14.80;14.00
12684;DHT22;6406;59.312;18.058;2022-07-12T00:37:17;14.80;13.30
12684;DHT22;6406;59.312;18.058;2022-07-12T00:39:44;14.80;10.50
12684;DHT22;6406;59.312;18.058;2022-07-12T00:42:11;14.70;7.30
12684;DHT22;6406;59.312;18.058;2022-07-12T00:44:38;14.70;9.70
12684;DHT22;6406;59.312;18.058;2022-07-12T00:47:05;14.60;8.60
12684;DHT22;6406;59.312;18.058;2022-07-12T00:49:32;14.70;10.10
12684;DHT22;6406;59.312;18.058;2022-07-12T00:52:01;14.70;5.80
12684;DHT22;6406;59.312;18.058;2022-07-12T00:54:28;14.60;4.40
12684;DHT22;6406;59.312;18.058;2022-07-12T00:56:55;14.60;4.70
12684;DHT22;6406;59.312;18.058;2022-07-12T00:59:22;14.60;1.00
12684;DHT22;6406;59.312;18.058;2022-07-12T01:01:49;14.60;2.20
12684;DHT22;6406;59.312;18.058;2022-07-12T01:04:16;14.50;1.00
12684;DHT22;6406;59.312;18.058;2022-07-12T01:06:44;14.50;1.00
12684;DHT22;6406;59.312;18.058;2022-07-12T01:09:13;14.50;1.00
12684;DHT22;6406;59.312;18.058;2022-07-12T01:11:40;14.50;1.00
12684;DHT22;6406;59.312;18.058;2022-07-12T01:14:07;14.50;1.00
12684;DHT22;6406;59.312;18.058;2022-07-12T01:16:35;14.50;1.00
12684;DHT22;6406;59.312;18.058;2022-07-12T01:19:04;14.40;1.00
12684;DHT22;6406;59.312;18.058;2022-07-12T01:21:37;14.40;1.00
12684;DHT22;6406;59.312;18.058;2022-07-12T01:24:06;14.40;1.00
12684;DHT22;6406;59.312;18.058;2022-07-12T01:26:35;14.30;1.00
12684;DHT22;6406;59.312;18.058;2022-07-12T01:29:02;14.30;1.00
12684;DHT22;6406;59.312;18.058;2022-07-12T01:31:29;14.30;1.00
12684;DHT22;6406;59.312;18.058;2022-07-12T01:33:57;14.30;1.00
12684;DHT22;6406;59.312;18.058;2022-07-12T01:36:24;14.30;1.00
12684;DHT22;6406;59.312;18.058;2022-07-12T01:38:51;14.10;1.00
12684;DHT22;6406;59.312;18.058;2022-07-12T01:41:20;14.20;1.00
12684;DHT22;6406;59.312;18.058;2022-07-12T01:43:48;14.20;1.00
12684;DHT22;6406;59.312;18.058;2022-07-12T01:46:15;14.20;1.00
12684;DHT22;6406;59.312;18.058;2022-07-12T01:48:42;14.20;1.00
12684;DHT22;6406;59.312;18.058;2022-07-12T01:51:09;14.20;1.00
12684;DHT22;6406;59.312;18.058;2022-07-12T01:53:37;14.20;1.00
12684;DHT22;6406;59.312;18.058;2022-07-12T01:56:04;14.10;1.00
12684;DHT22;6406;59.312;18.058;2022-07-12T01:58:32;14.10;1.00
12684;DHT22;6406;59.312;18.058;2022-07-12T02:00:59;14.00;1.00
12684;DHT22;6406;59.312;18.058;2022-07-12T02:03:26;14.10;1.00
12684;DHT22;6406;59.312;18.058;2022-07-12T02:05:53;14.10;1.00
12684;DHT22;6406;59.312;18.058;2022-07-12T02:08:20;14.00;1.00
12684;DHT22;6406;59.312;18.058;2022-07-12T02:10:47;13.90;1.00
12684;DHT22;6406;59.312;18.058;2022-07-12T02:13:14;13.90;1.00
12684;DHT22;6406;59.312;18.058;2022-07-12T02:15:42;14.00;1.00
12684;DHT22;6406;59.312;18.058;2022-07-12T02:18:09;14.00;1.00
12684;DHT22;6406;59.312;18.058;2022-07-12T02:20:36;14.00;1.00
12684;DHT22;6406;59.312;18.058;2022-07-12T02:23:03;14.10;1.00
12684;DHT22;6406;59.312;18.058;2022-07-12T02:25:30;14.10;1.00
12684;DHT22;6406;59.312;18.058;2022-07-12T02:27:57;14.10;1.00
12684;DHT22;6406;59.312;18.058;2022-07-12T02:30:24;14.10;1.00
12684;DHT22;6406;59.312;18.058;2022-07-12T02:32:53;14.10;1.00
12684;DHT22;6406;59.312;18.058;2022-07-12T02:35:20;14.20;1.00
12684;DHT22;6406;59.312;18.058;2022-07-12T02:37:47;14.20;1.00
12684;DHT22;6406;59.312;18.058;2022-07-12T02:40:14;14.20;1.00
12684;DHT22;6406;59.312;18.058;2022-07-12T02:42:58;14.30;1.00
12684;DHT22;6406;59.312;18.058;2022-07-12T02:45:25;14.40;1.00
12684;DHT22;6406;59.312;18.058;2022-07-12T02:47:53;14.40;1.00
12684;DHT22;6406;59.312;18.058;2022-07-12T02:50:20;14.40;1.00
12684;DHT22;6406;59.312;18.058;2022-07-12T02:52:47;14.40;1.00
12684;DHT22;6406;59.312;18.058;2022-07-12T02:55:14;14.30;1.00
12684;DHT22;6406;59.312;18.058;2022-07-12T02:57:41;14.40;1.00
12684;DHT22;6406;59.312;18.058;2022-07-12T03:00:12;14.30;1.00
12684;DHT22;6406;59.312;18.058;2022-07-12T03:02:39;14.40;1.00
12684;DHT22;6406;59.312;18.058;2022-07-12T03:05:08;14.60;1.00
12684;DHT22;6406;59.312;18.058;2022-07-12T03:07:35;14.70;1.00
12684;DHT22;6406;59.312;18.058;2022-07-12T03:10:03;14.80;1.00
12684;DHT22;6406;59.312;18.058;2022-07-12T03:12:31;14.80;1.00
12684;DHT22;6406;59.312;18.058;2022-07-12T03:14:58;14.80;1.00
12684;DHT22;6406;59.312;18.058;2022-07-12T03:17:24;14.90;1.00
12684;DHT22;6406;59.312;18.058;2022-07-12T03:19:51;14.90;1.00
12684;DHT22;6406;59.312;18.058;2022-07-12T03:22:20;14.90;1.00
12684;DHT22;6406;59.312;18.058;2022-07-12T03:24:47;14.90;1.00
12684;DHT22;6406;59.312;18.058;2022-07-12T03:27:14;15.00;1.00
12684;DHT22;6406;59.312;18.058;2022-07-12T03:29:41;15.00;1.00
12684;DHT22;6406;59.312;18.058;2022-07-12T03:32:08;15.10;1.00
12684;DHT22;6406;59.312;18.058;2022-07-12T03:34:35;15.10;1.00
12684;DHT22;6406;59.312;18.058;2022-07-12T03:37:03;15.10;1.00
12684;DHT22;6406;59.312;18.058;2022-07-12T03:39:31;15.20;1.00
12684;DHT22;6406;59.312;18.058;2022-07-12T03:41:58;15.30;1.00
12684;DHT22;6406;59.312;18.058;2022-07-12T03:44:25;15.30;1.00
12684;DHT22;6406;59.312;18.058;2022-07-12T03:46:53;15.40;1.00
12684;DHT22;6406;59.312;18.058;2022-07-12T03:49:20;15.40;1.00
12684;DHT22;6406;59.312;18.058;2022-07-12T03:51:47;15.70;1.00
12684;DHT22;6406;59.312;18.058;2022-07-12T03:54:14;15.70;1.00
12684;DHT22;6406;59.312;18.058;2022-07-12T03:56:42;15.70;1.00
12684;DHT22;6406;59.312;18.058;2022-07-12T03:59:26;15.80;1.00
12684;DHT22;6406;59.312;18.058;2022-07-12T04:01:53;15.80;1.00
12684;DHT22;6406;59.312;18.058;2022-07-12T04:04:20;16.00;1.00
12684;DHT22;6406;59.312;18.058;2022-07-12T04:06:47;16.10;1.00
12684;DHT22;6406;59.312;18.058;2022-07-12T04:09:14;16.20;1.00
12684;DHT22;6406;59.312;18.058;2022-07-12T04:11:42;16.30;1.00
12684;DHT22;6406;59.312;18.058;2022-07-12T04:14:10;16.40;1.00
12684;DHT22;6406;59.312;18.058;2022-07-12T04:16:37;16.40;1.00
12684;DHT22;6406;59.312;18.058;2022-07-12T04:19:04;16.50;1.00
12684;DHT22;6406;59.312;18.058;2022-07-12T04:21:31;16.60;1.00
12684;DHT22;6406;59.312;18.058;2022-07-12T04:23:58;16.60;1.00
12684;DHT22;6406;59.312;18.058;2022-07-12T04:26:25;16.60;1.00
12684;DHT22;6406;59.312;18.058;2022-07-12T04:28:54;16.80;1.00
12684;DHT22;6406;59.312;18.058;2022-07-12T04:31:21;16.90;1.00
12684;DHT22;6406;59.312;18.058;2022-07-12T04:33:48;16.90;1.00
12684;DHT22;6406;59.312;18.058;2022-07-12T04:36:15;17.00;1.00
12684;DHT22;6406;59.312;18.058;2022-07-12T04:38:42;16.80;1.00
12684;DHT22;6406;59.312;18.058;2022-07-12T04:41:09;17.20;1.00
12684;DHT22;6406;59.312;18.058;2022-07-12T04:43:36;17.20;1.00
12684;DHT22;6406;59.312;18.058;2022-07-12T04:46:09;17.20;1.00
12684;DHT22;6406;59.312;18.058;2022-07-12T04:48:36;17.30;1.00
12684;DHT22;6406;59.312;18.058;2022-07-12T04:51:03;17.60;1.00
12684;DHT22;6406;59.312;18.058;2022-07-12T04:53:30;17.40;1.00
12684;DHT22;6406;59.312;18.058;2022-07-12T04:55:58;17.70;1.00
12684;DHT22;6406;59.312;18.058;2022-07-12T04:58:25;17.80;1.00
12684;DHT22;6406;59.312;18.058;2022-07-12T05:00:52;17.80;1.00
12684;DHT22;6406;59.312;18.058;2022-07-12T05:03:21;17.10;1.00
12684;DHT22;6406;59.312;18.058;2022-07-12T05:05:53;17.60;1.00
12684;DHT22;6406;59.312;18.058;2022-07-12T05:08:20;17.20;1.00
12684;DHT22;6406;59.312;18.058;2022-07-12T05:10:47;17.80;1.00
12684;DHT22;6406;59.312;18.058;2022-07-12T05:13:15;17.90;1.00
12684;DHT22;6406;59.312;18.058;2022-07-12T05:15:42;18.30;1.00
12684;DHT22;6406;59.312;18.058;2022-07-12T05:18:09;18.20;1.00
12684;DHT22;6406;59.312;18.058;2022-07-12T05:20:37;18.10;1.00
12684;DHT22;6406;59.312;18.058;2022-07-12T05:23:04;18.30;1.00
12684;DHT22;6406;59.312;18.058;2022-07-12T05:25:32;17.00;1.00
12684;DHT22;6406;59.312;18.058;2022-07-12T05:27:59;19.00;1.00
12684;DHT22;6406;59.312;18.058;2022-07-12T05:30:26;19.30;1.00
12684;DHT22;6406;59.312;18.058;2022-07-12T05:32:54;19.50;1.00
12684;DHT22;6406;59.312;18.058;2022-07-12T05:35:24;19.60;1.00
12684;DHT22;6406;59.312;18.058;2022-07-12T05:37:53;19.50;1.00
12684;DHT22;6406;59.312;18.058;2022-07-12T05:40:20;19.80;1.00
12684;DHT22;6406;59.312;18.058;2022-07-12T05:42:48;19.90;1.00
12684;DHT22;6406;59.312;18.058;2022-07-12T05:45:19;19.60;1.00
12684;DHT22;6406;59.312;18.058;2022-07-12T05:47:48;19.70;1.00
12684;DHT22;6406;59.312;18.058;2022-07-12T05:50:16;20.10;1.00
12684;DHT22;6406;59.312;18.058;2022-07-12T05:52:46;20.30;1.00
12684;DHT22;6406;59.312;18.058;2022-07-12T05:55:32;20.10;1.00
12684;DHT22;6406;59.312;18.058;2022-07-12T05:57:59;20.00;1.00
12684;DHT22;6406;59.312;18.058;2022-07-12T06:00:28;20.40;1.00
12684;DHT22;6406;59.312;18.058;2022-07-12T06:02:55;20.00;1.00
12684;DHT22;6406;59.312;18.058;2022-07-12T06:05:22;20.20;1.00
12684;DHT22;6406;59.312;18.058;2022-07-12T06:07:49;20.00;1.00
12684;DHT22;6406;59.312;18.058;2022-07-12T06:10:16;20.00;1.00
12684;DHT22;6406;59.312;18.058;2022-07-12T06:12:45;20.00;1.00
12684;DHT22;6406;59.312;18.058;2022-07-12T06:15:12;20.00;1.00
12684;DHT22;6406;59.312;18.058;2022-07-12T06:17:39;20.10;1.00
12684;DHT22;6406;59.312;18.058;2022-07-12T06:20:07;20.20;1.00
12684;DHT22;6406;59.312;18.058;2022-07-12T06:22:34;20.30;1.00
12684;DHT22;6406;59.312;18.058;2022-07-12T06:25:01;20.40;1.00
12684;DHT22;6406;59.312;18.058;2022-07-12T06:27:28;20.50;1.00
12684;DHT22;6406;59.312;18.058;2022-07-12T06:29:57;20.60;1.00
12684;DHT22;6406;59.312;18.058;2022-07-12T06:32:24;20.80;1.00
12684;DHT22;6406;59.312;18.058;2022-07-12T06:34:51;20.70;1.00
12684;DHT22;6406;59.312;18.058;2022-07-12T06:37:18;20.90;1.00
12684;DHT22;6406;59.312;18.058;2022-07-12T06:39:46;19.90;1.00
12684;DHT22;6406;59.312;18.058;2022-07-12T06:42:14;21.30;1.00
12684;DHT22;6406;59.312;18.058;2022-07-12T06:44:44;21.30;1.00
12684;DHT22;6406;59.312;18.058;2022-07-12T06:47:13;19.70;1.00
12684;DHT22;6406;59.312;18.058;2022-07-12T06:49:43;21.20;1.00
12684;DHT22;6406;59.312;18.058;2022-07-12T06:52:11;21.20;1.00
12684;DHT22;6406;59.312;18.058;2022-07-12T06:54:38;21.20;1.00
12684;DHT22;6406;59.312;18.058;2022-07-12T06:57:06;20.10;1.00
12684;DHT22;6406;59.312;18.058;2022-07-12T06:59:33;20.90;1.00
12684;DHT22;6406;59.312;18.058;2022-07-12T07:02:00;21.10;1.00
12684;DHT22;6406;59.312;18.058;2022-07-12T07:04:29;21.10;1.00
12684;DHT22;6406;59.312;18.058;2022-07-12T07:06:56;21.00;1.00
12684;DHT22;6406;59.312;18.058;2022-07-12T07:09:23;20.80;1.00
12684;DHT22;6406;59.312;18.058;2022-07-12T07:11:51;20.80;1.00
12684;DHT22;6406;59.312;18.058;2022-07-12T07:14:19;20.80;1.00
12684;DHT22;6406;59.312;18.058;2022-07-12T07:16:46;21.00;1.00
12684;DHT22;6406;59.312;18.058;2022-07-12T07:19:13;21.10;1.00
12684;DHT22;6406;59.312;18.058;2022-07-12T07:21:42;20.20;1.00
12684;DHT22;6406;59.312;18.058;2022-07-12T07:24:10;20.00;1.00
12684;DHT22;6406;59.312;18.058;2022-07-12T07:26:37;21.20;1.00
12684;DHT22;6406;59.312;18.058;2022-07-12T07:29:04;21.30;1.00
12684;DHT22;6406;59.312;18.058;2022-07-12T07:31:49;21.40;1.00
12684;DHT22;6406;59.312;18.058;2022-07-12T07:34:16;21.50;1.00
12684;DHT22;6406;59.312;18.058;2022-07-12T07:36:45;21.50;1.00
12684;DHT22;6406;59.312;18.058;2022-07-12T07:39:15;21.90;1.00
12684;DHT22;6406;59.312;18.058;2022-07-12T07:41:42;21.60;1.00
12684;DHT22;6406;59.312;18.058;2022-07-12T07:44:10;21.70;1.00
12684;DHT22;6406;59.312;18.058;2022-07-12T07:46:39;22.00;1.00
12684;DHT22;6406;59.312;18.058;2022-07-12T07:49:06;21.80;1.00
12684;DHT22;6406;59.312;18.058;2022-07-12T07:51:36;21.70;1.00
12684;DHT22;6406;59.312;18.058;2022-07-12T07:54:06;21.80;1.00
12684;DHT22;6406;59.312;18.058;2022-07-12T07:56:52;21.60;1.00
12684;DHT22;6406;59.312;18.058;2022-07-12T07:59:20;21.70;1.00
12684;DHT22;6406;59.312;18.058;2022-07-12T08:01:47;22.10;1.00
12684;DHT22;6406;59.312;18.058;2022-07-12T08:04:18;22.10;1.00
12684;DHT22;6406;59.312;18.058;2022-07-12T08:06:46;22.10;1.00
12684;DHT22;6406;59.312;18.058;2022-07-12T08:09:20;21.10;1.00
12684;DHT22;6406;59.312;18.058;2022-07-12T08:11:53;22.00;1.00
12684;DHT22;6406;59.312;18.058;2022-07-12T08:14:48;22.10;1.00
12684;DHT22;6406;59.312;18.058;2022-07-12T08:17:25;20.80;1.00
12684;DHT22;6406;59.312;18.058;2022-07-12T08:19:52;22.20;1.00
12684;DHT22;6406;59.312;18.058;2022-07-12T08:25:12;22.10;1.00
12684;DHT22;6406;59.312;18.058;2022-07-12T08:27:44;22.40;1.00
12684;DHT22;6406;59.312;18.058;2022-07-12T08:30:14;22.50;1.00
12684;DHT22;6406;59.312;18.058;2022-07-12T08:32:48;22.40;1.00
12684;DHT22;6406;59.312;18.058;2022-07-12T08:35:18;21.50;1.00
12684;DHT22;6406;59.312;18.058;2022-07-12T08:37:46;21.20;1.00
12684;DHT22;6406;59.312;18.058;2022-07-12T08:40:14;22.40;1.00
12684;DHT22;6406;59.312;18.058;2022-07-12T08:42:42;22.40;1.00
12684;DHT22;6406;59.312;18.058;2022-07-12T08:45:10;22.40;1.00
12684;DHT22;6406;59.312;18.058;2022-07-12T08:47:40;22.60;1.00
12684;DHT22;6406;59.312;18.058;2022-07-12T08:50:11;23.50;1.00
12684;DHT22;6406;59.312;18.058;2022-07-12T08:52:39;22.70;1.00
12684;DHT22;6406;59.312;18.058;2022-07-12T08:55:23;22.70;1.00
12684;DHT22;6406;59.312;18.058;2022-07-12T08:57:52;22.80;1.00
12684;DHT22;6406;59.312;18.058;2022-07-12T09:00:20;22.80;1.00
12684;DHT22;6406;59.312;18.058;2022-07-12T09:02:49;23.00;1.00
12684;DHT22;6406;59.312;18.058;2022-07-12T09:05:19;23.10;1.00
12684;DHT22;6406;59.312;18.058;2022-07-12T09:07:46;23.10;1.00
12684;DHT22;6406;59.312;18.058;2022-07-12T09:10:14;23.30;1.00
12684;DHT22;6406;59.312;18.058;2022-07-12T09:12:44;23.70;1.00
12684;DHT22;6406;59.312;18.058;2022-07-12T09:15:15;23.50;1.00
12684;DHT22;6406;59.312;18.058;2022-07-12T09:17:54;23.60;1.00
12684;DHT22;6406;59.312;18.058;2022-07-12T09:20:22;23.50;1.00
12684;DHT22;6406;59.312;18.058;2022-07-12T09:22:55;23.50;1.00
12684;DHT22;6406;59.312;18.058;2022-07-12T09:25:23;23.70;1.00
12684;DHT22;6406;59.312;18.058;2022-07-12T09:27:53;23.80;1.00
12684;DHT22;6406;59.312;18.058;2022-07-12T09:30:20;23.90;1.00
12684;DHT22;6406;59.312;18.058;2022-07-12T09:32:56;24.00;1.00
12684;DHT22;6406;59.312;18.058;2022-07-12T09:35:41;24.10;1.00
12684;DHT22;6406;59.312;18.058;2022-07-12T09:38:26;24.20;1.00
12684;DHT22;6406;59.312;18.058;2022-07-12T09:40:54;24.40;1.00
12684;DHT22;6406;59.312;18.058;2022-07-12T09:43:30;24.60;1.00
12684;DHT22;6406;59.312;18.058;2022-07-12T09:45:58;25.20;1.00
12684;DHT22;6406;59.312;18.058;2022-07-12T09:48:27;23.80;1.00
12684;DHT22;6406;59.312;18.058;2022-07-12T09:50:55;25.10;1.00
12684;DHT22;6406;59.312;18.058;2022-07-12T09:53:28;24.50;1.00
12684;DHT22;6406;59.312;18.058;2022-07-12T09:56:18;25.00;1.00
12684;DHT22;6406;59.312;18.058;2022-07-12T09:58:52;24.50;1.00
12684;DHT22;6406;59.312;18.058;2022-07-12T10:01:19;24.90;1.00
12684;DHT22;6406;59.312;18.058;2022-07-12T10:04:11;24.80;1.00
12684;DHT22;6406;59.312;18.058;2022-07-12T10:06:43;23.60;1.00
12684;DHT22;6406;59.312;18.058;2022-07-12T10:09:10;25.60;1.00
12684;DHT22;6406;59.312;18.058;2022-07-12T10:11:38;24.90;1.00
12684;DHT22;6406;59.312;18.058;2022-07-12T10:14:14;24.30;1.00
12684;DHT22;6406;59.312;18.058;2022-07-12T10:16:46;24.50;1.00
12684;DHT22;6406;59.312;18.058;2022-07-12T10:19:24;25.10;1.00
12684;DHT22;6406;59.312;18.058;2022-07-12T10:21:55;26.10;1.00
12684;DHT22;6406;59.312;18.058;2022-07-12T10:24:49;26.60;1.00
12684;DHT22;6406;59.312;18.058;2022-07-12T10:27:29;26.80;1.00
12684;DHT22;6406;59.312;18.058;2022-07-12T10:32:53;27.80;1.00
12684;DHT22;6406;59.312;18.058;2022-07-12T10:35:25;28.60;1.00
12684;DHT22;6406;59.312;18.058;2022-07-12T10:38:15;28.60;1.00
12684;DHT22;6406;59.312;18.058;2022-07-12T10:40:44;28.20;1.00
12684;DHT22;6406;59.312;18.058;2022-07-12T10:43:21;28.70;1.00
12684;DHT22;6406;59.312;18.058;2022-07-12T10:46:23;28.30;1.00
12684;DHT22;6406;59.312;18.058;2022-07-12T10:49:24;27.70;1.00
12684;DHT22;6406;59.312;18.058;2022-07-12T10:52:24;28.20;1.00
12684;DHT22;6406;59.312;18.058;2022-07-12T10:55:17;28.50;1.00
12684;DHT22;6406;59.312;18.058;2022-07-12T10:57:48;29.80;1.00
12684;DHT22;6406;59.312;18.058;2022-07-12T11:00:20;28.70;1.00
12684;DHT22;6406;59.312;18.058;2022-07-12T11:02:55;27.40;1.00
12684;DHT22;6406;59.312;18.058;2022-07-12T11:05:30;28.30;1.00
12684;DHT22;6406;59.312;18.058;2022-07-12T11:08:02;28.70;1.00
12684;DHT22;6406;59.312;18.058;2022-07-12T11:10:33;27.80;1.00
12684;DHT22;6406;59.312;18.058;2022-07-12T11:13:01;27.90;1.00
12684;DHT22;6406;59.312;18.058;2022-07-12T11:15:31;29.00;1.00
12684;DHT22;6406;59.312;18.058;2022-07-12T11:17:58;28.50;1.00
12684;DHT22;6406;59.312;18.058;2022-07-12T11:20:30;28.30;1.00
12684;DHT22;6406;59.312;18.058;2022-07-12T11:23:02;27.90;1.00
12684;DHT22;6406;59.312;18.058;2022-07-12T11:25:30;28.40;1.00
12684;DHT22;6406;59.312;18.058;2022-07-12T11:27:57;28.80;1.00
12684;DHT22;6406;59.312;18.058;2022-07-12T11:30:26;28.80;1.00
12684;DHT22;6406;59.312;18.058;2022-07-12T11:32:53;29.30;1.00
12684;DHT22;6406;59.312;18.058;2022-07-12T11:35:21;29.20;1.00
12684;DHT22;6406;59.312;18.058;2022-07-12T11:37:51;29.10;1.00
12684;DHT22;6406;59.312;18.058;2022-07-12T11:40:27;29.00;1.00
12684;DHT22;6406;59.312;18.058;2022-07-12T11:42:55;29.10;1.00
12684;DHT22;6406;59.312;18.058;2022-07-12T11:45:24;27.30;1.00
12684;DHT22;6406;59.312;18.058;2022-07-12T11:47:54;28.50;1.00
12684;DHT22;6406;59.312;18.058;2022-07-12T11:50:24;28.70;1.00
12684;DHT22;6406;59.312;18.058;2022-07-12T11:52:59;28.50;1.00
12684;DHT22;6406;59.312;18.058;2022-07-12T11:55:26;29.20;1.00
12684;DHT22;6406;59.312;18.058;2022-07-12T11:58:03;29.60;1.00
12684;DHT22;6406;59.312;18.058;2022-07-12T12:00:31;30.20;1.00
12684;DHT22;6406;59.312;18.058;2022-07-12T12:02:59;30.90;1.00
12684;DHT22;6406;59.312;18.058;2022-07-12T12:05:26;31.20;1.00
12684;DHT22;6406;59.312;18.058;2022-07-12T12:07:53;31.00;1.00
12684;DHT22;6406;59.312;18.058;2022-07-12T12:10:22;31.10;1.00
12684;DHT22;6406;59.312;18.058;2022-07-12T12:12:57;30.00;1.00
12684;DHT22;6406;59.312;18.058;2022-07-12T12:15:25;30.50;1.00
12684;DHT22;6406;59.312;18.058;2022-07-12T12:17:54;30.90;1.00
12684;DHT22;6406;59.312;18.058;2022-07-12T12:20:28;30.10;1.00
12684;DHT22;6406;59.312;18.058;2022-07-12T12:23:03;30.70;1.00
12684;DHT22;6406;59.312;18.058;2022-07-12T12:25:41;31.10;1.00
12684;DHT22;6406;59.312;18.058;2022-07-12T12:28:09;30.20;1.00
12684;DHT22;6406;59.312;18.058;2022-07-12T12:30:49;31.20;1.00
12684;DHT22;6406;59.312;18.058;2022-07-12T12:33:33;29.40;1.00
12684;DHT22;6406;59.312;18.058;2022-07-12T12:36:11;28.90;1.00
12684;DHT22;6406;59.312;18.058;2022-07-12T12:38:39;28.50;1.00
12684;DHT22;6406;59.312;18.058;2022-07-12T12:41:09;29.10;1.00
12684;DHT22;6406;59.312;18.058;2022-07-12T12:43:37;29.90;1.00
12684;DHT22;6406;59.312;18.058;2022-07-12T12:46:05;29.80;1.00
12684;DHT22;6406;59.312;18.058;2022-07-12T12:48:33;29.80;1.00
12684;DHT22;6406;59.312;18.058;2022-07-12T12:51:06;30.40;1.00
12684;DHT22;6406;59.312;18.058;2022-07-12T12:53:54;29.90;1.00
12684;DHT22;6406;59.312;18.058;2022-07-12T12:56:23;28.20;1.00
12684;DHT22;6406;59.312;18.058;2022-07-12T12:58:54;29.20;1.00
12684;DHT22;6406;59.312;18.058;2022-07-12T13:01:22;29.20;1.00
12684;DHT22;6406;59.312;18.058;2022-07-12T13:03:51;29.20;1.00
12684;DHT22;6406;59.312;18.058;2022-07-12T13:06:22;29.90;1.00
12684;DHT22;6406;59.312;18.058;2022-07-12T13:09:12;30.70;1.00
12684;DHT22;6406;59.312;18.058;2022-07-12T13:12:03;29.60;1.00
12684;DHT22;6406;59.312;18.058;2022-07-12T13:14:31;30.60;1.00
12684;DHT22;6406;59.312;18.058;2022-07-12T13:16:58;30.70;1.00
12684;DHT22;6406;59.312;18.058;2022-07-12T13:19:26;30.30;1.00
12684;DHT22;6406;59.312;18.058;2022-07-12T13:21:53;30.00;1.00
12684;DHT22;6406;59.312;18.058;2022-07-12T13:24:20;30.20;1.00
12684;DHT22;6406;59.312;18.058;2022-07-12T13:26:48;30.60;1.00
12684;DHT22;6406;59.312;18.058;2022-07-12T13:29:17;31.10;1.00
12684;DHT22;6406;59.312;18.058;2022-07-12T13:31:45;30.20;1.00
12684;DHT22;6406;59.312;18.058;2022-07-12T13:34:13;29.40;1.00
12684;DHT22;6406;59.312;18.058;2022-07-12T13:36:40;30.20;1.00
12684;DHT22;6406;59.312;18.058;2022-07-12T13:39:07;30.30;1.00
12684;DHT22;6406;59.312;18.058;2022-07-12T13:41:52;30.20;1.00
12684;DHT22;6406;59.312;18.058;2022-07-12T13:44:21;29.90;1.00
12684;DHT22;6406;59.312;18.058;2022-07-12T13:46:48;30.50;1.00
12684;DHT22;6406;59.312;18.058;2022-07-12T13:49:15;30.40;1.00
12684;DHT22;6406;59.312;18.058;2022-07-12T13:51:42;28.70;1.00
12684;DHT22;6406;59.312;18.058;2022-07-12T13:54:11;30.00;1.00
12684;DHT22;6406;59.312;18.058;2022-07-12T13:56:38;29.40;1.00
12684;DHT22;6406;59.312;18.058;2022-07-12T13:59:06;30.30;1.00
12684;DHT22;6406;59.312;18.058;2022-07-12T14:01:36;30.50;1.00
12684;DHT22;6406;59.312;18.058;2022-07-12T14:04:04;30.20;1.00
12684;DHT22;6406;59.312;18.058;2022-07-12T14:06:31;30.60;1.00
12684;DHT22;6406;59.312;18.058;2022-07-12T14:09:01;30.10;1.00
12684;DHT22;6406;59.312;18.058;2022-07-12T14:11:30;29.90;1.00
12684;DHT22;6406;59.312;18.058;2022-07-12T14:14:03;29.90;1.00
12684;DHT22;6406;59.312;18.058;2022-07-12T14:16:30;30.00;1.00
12684;DHT22;6406;59.312;18.058;2022-07-12T14:19:00;30.30;1.00
12684;DHT22;6406;59.312;18.058;2022-07-12T14:21:28;30.40;1.00
12684;DHT22;6406;59.312;18.058;2022-07-12T14:24:08;30.40;1.00
12684;DHT22;6406;59.312;18.058;2022-07-12T14:26:36;30.30;1.00
12684;DHT22;6406;59.312;18.058;2022-07-12T14:29:06;30.30;1.00
12684;DHT22;6406;59.312;18.058;2022-07-12T14:31:33;30.30;1.00
12684;DHT22;6406;59.312;18.058;2022-07-12T14:34:02;29.20;1.00
12684;DHT22;6406;59.312;18.058;2022-07-12T14:36:29;29.00;1.00
12684;DHT22;6406;59.312;18.058;2022-07-12T14:38:56;28.70;1.00
12684;DHT22;6406;59.312;18.058;2022-07-12T14:41:24;28.10;1.00
12684;DHT22;6406;59.312;18.058;2022-07-12T14:43:52;28.40;1.00
12684;DHT22;6406;59.312;18.058;2022-07-12T14:46:19;28.40;1.00
12684;DHT22;6406;59.312;18.058;2022-07-12T14:48:54;28.60;1.00
12684;DHT22;6406;59.312;18.058;2022-07-12T14:51:25;27.70;1.00
12684;DHT22;6406;59.312;18.058;2022-07-12T14:54:16;28.90;1.00
12684;DHT22;6406;59.312;18.058;2022-07-12T14:56:44;28.10;1.00
12684;DHT22;6406;59.312;18.058;2022-07-12T14:59:12;29.10;1.00
12684;DHT22;6406;59.312;18.058;2022-07-12T15:01:39;28.10;1.00
12684;DHT22;6406;59.312;18.058;2022-07-12T15:04:07;27.40;1.00
12684;DHT22;6406;59.312;18.058;2022-07-12T15:06:36;27.80;1.00
12684;DHT22;6406;59.312;18.058;2022-07-12T15:09:04;28.40;1.00
12684;DHT22;6406;59.312;18.058;2022-07-12T15:11:45;28.40;1.00
12684;DHT22;6406;59.312;18.058;2022-07-12T15:14:17;26.30;1.00
12684;DHT22;6406;59.312;18.058;2022-07-12T15:16:45;26.70;1.00
12684;DHT22;6406;59.312;18.058;2022-07-12T15:19:12;26.40;1.00
12684;DHT22;6406;59.312;18.058;2022-07-12T15:21:44;28.00;1.00
12684;DHT22;6406;59.312;18.058;2022-07-12T15:24:15;27.80;1.00
12684;DHT22;6406;59.312;18.058;2022-07-12T15:26:42;27.80;1.00
12684;DHT22;6406;59.312;18.058;2022-07-12T15:29:09;27.80;1.00
12684;DHT22;6406;59.312;18.058;2022-07-12T15:31:38;27.70;1.00
12684;DHT22;6406;59.312;18.058;2022-07-12T15:34:05;27.50;1.00
12684;DHT22;6406;59.312;18.058;2022-07-12T15:36:32;27.60;1.00
12684;DHT22;6406;59.312;18.058;2022-07-12T15:39:01;28.00;1.00
12684;DHT22;6406;59.312;18.058;2022-07-12T15:41:28;28.70;1.00
12684;DHT22;6406;59.312;18.058;2022-07-12T15:43:55;29.20;1.00
12684;DHT22;6406;59.312;18.058;2022-07-12T15:46:23;30.20;1.00
12684;DHT22;6406;59.312;18.058;2022-07-12T15:48:50;30.50;1.00
12684;DHT22;6406;59.312;18.058;2022-07-12T15:51:17;30.70;1.00
12684;DHT22;6406;59.312;18.058;2022-07-12T15:53:44;30.80;1.00
12684;DHT22;6406;59.312;18.058;2022-07-12T15:56:12;30.70;1.00
12684;DHT22;6406;59.312;18.058;2022-07-12T15:58:40;30.50;1.00
12684;DHT22;6406;59.312;18.058;2022-07-12T16:01:08;30.80;1.00
12684;DHT22;6406;59.312;18.058;2022-07-12T16:03:35;31.20;1.00
12684;DHT22;6406;59.312;18.058;2022-07-12T16:06:05;31.80;1.00